sensor_id;sensor_type;location;lat;lon;timestamp;P1;durP1;ratioP1;P2;durP2;ratioP2
55913;SDS011;58179;48.776;9.124;2022-09-29T00:00:24;11.93;;;5.20;;
55913;SDS011;58179;48.776;9.124;2022-09-29T00:02:53;9.30;;;5.30;;
55913;SDS011;58179;48.776;9.124;2022-09-29T00:05:19;12.27;;;5.45;;
55913;SDS011;58179;48.776;9.124;2022-09-29T00:07:46;10.75;;;5.40;;
55913;SDS011;58179;48.776;9.124;2022-09-29T00:10:12;9.32;;;5.22;;
55913;SDS011;58179;48.776;9.124;2022-09-29T00:12:38;12.93;;;6.15;;
55913;SDS011;58179;48.776;9.124;2022-09-29T00:15:06;9.70;;;5.70;;
55913;SDS011;58179;48.776;9.124;2022-09-29T00:17:32;7.57;;;5.03;;
55913;SDS011;58179;48.776;9.124;2022-09-29T00:19:58;11.13;;;5.37;;
55913;SDS011;58179;48.776;9.124;2022-09-29T00:22:25;7.55;;;5.05;;
55913;SDS011;58179;48.776;9.124;2022-09-29T00:24:51;10.48;;;5.38;;
55913;SDS011;58179;48.776;9.124;2022-09-29T00:27:17;12.48;;;5.15;;
55913;SDS011;58179;48.776;9.124;2022-09-29T00:29:43;10.52;;;5.50;;
55913;SDS011;58179;48.776;9.124;2022-09-29T00:32:11;9.32;;;5.50;;
55913;SDS011;58179;48.776;9.124;2022-09-29T00:34:37;8.82;;;5.05;;
55913;SDS011;58179;48.776;9.124;2022-09-29T00:37:03;8.30;;;4.82;;
55913;SDS011;58179;48.776;9.124;2022-09-29T00:39:29;9.45;;;5.60;;
55913;SDS011;58179;48.776;9.124;2022-09-29T00:41:55;8.00;;;4.87;;
55913;SDS011;58179;48.776;9.124;2022-09-29T00:47:42;8.25;;;5.28;;
55913;SDS011;58179;48.776;9.124;2022-09-29T00:50:15;9.80;;;5.15;;
55913;SDS011;58179;48.776;9.124;2022-09-29T00:52:47;10.98;;;5.38;;
55913;SDS011;58179;48.776;9.124;2022-09-29T00:55:21;8.23;;;5.10;;
55913;SDS011;58179;48.776;9.124;2022-09-29T00:57:51;10.38;;;4.35;;
55913;SDS011;58179;48.776;9.124;2022-09-29T01:00:22;7.07;;;4.47;;
55913;SDS011;58179;48.776;9.124;2022-09-29T01:02:50;8.48;;;4.75;;
55913;SDS011;58179;48.776;9.124;2022-09-29T01:05:22;11.73;;;4.97;;
55913;SDS011;58179;48.776;9.124;2022-09-29T01:07:51;14.60;;;5.25;;
55913;SDS011;58179;48.776;9.124;2022-09-29T01:10:17;9.80;;;5.05;;
55913;SDS011;58179;48.776;9.124;2022-09-29T01:12:44;9.90;;;4.70;;
55913;SDS011;58179;48.776;9.124;2022-09-29T01:15:12;11.23;;;5.25;;
55913;SDS011;58179;48.776;9.124;2022-09-29T01:17:41;10.00;;;4.60;;
55913;SDS011;58179;48.776;9.124;2022-09-29T01:20:10;8.83;;;4.50;;
55913;SDS011;58179;48.776;9.124;2022-09-29T01:26:19;7.53;;;4.20;;
55913;SDS011;58179;48.776;9.124;2022-09-29T01:29:46;8.82;;;4.53;;
55913;SDS011;58179;48.776;9.124;2022-09-29T01:32:48;7.22;;;4.70;;
55913;SDS011;58179;48.776;9.124;2022-09-29T01:35:29;10.35;;;4.32;;
55913;SDS011;58179;48.776;9.124;2022-09-29T01:38:07;7.95;;;4.43;;
55913;SDS011;58179;48.776;9.124;2022-09-29T01:40:53;9.25;;;4.50;;
55913;SDS011;58179;48.776;9.124;2022-09-29T01:43:30;8.65;;;4.60;;
55913;SDS011;58179;48.776;9.124;2022-09-29T01:46:01;7.43;;;4.10;;
55913;SDS011;58179;48.776;9.124;2022-09-29T01:48:33;10.82;;;4.43;;
55913;SDS011;58179;48.776;9.124;2022-09-29T01:51:04;7.13;;;4.05;;
55913;SDS011;58179;48.776;9.124;2022-09-29T01:53:37;8.60;;;4.80;;
55913;SDS011;58179;48.776;9.124;2022-09-29T01:56:08;8.77;;;4.47;;
55913;SDS011;58179;48.776;9.124;2022-09-29T01:58:42;7.85;;;4.43;;
55913;SDS011;58179;48.776;9.124;2022-09-29T02:01:17;9.45;;;4.32;;
55913;SDS011;58179;48.776;9.124;2022-09-29T02:03:47;11.63;;;4.63;;
55913;SDS011;58179;48.776;9.124;2022-09-29T02:06:19;7.65;;;3.85;;
55913;SDS011;58179;48.776;9.124;2022-09-29T02:08:50;7.32;;;3.60;;
55913;SDS011;58179;48.776;9.124;2022-09-29T02:11:18;12.27;;;4.30;;
55913;SDS011;58179;48.776;9.124;2022-09-29T02:13:46;8.73;;;3.80;;
55913;SDS011;58179;48.776;9.124;2022-09-29T02:16:20;8.95;;;3.92;;
55913;SDS011;58179;48.776;9.124;2022-09-29T02:18:52;5.65;;;3.78;;
55913;SDS011;58179;48.776;9.124;2022-09-29T02:21:21;6.20;;;3.70;;
55913;SDS011;58179;48.776;9.124;2022-09-29T02:23:48;6.57;;;4.10;;
55913;SDS011;58179;48.776;9.124;2022-09-29T02:26:14;10.27;;;4.00;;
55913;SDS011;58179;48.776;9.124;2022-09-29T02:28:41;8.48;;;3.80;;
55913;SDS011;58179;48.776;9.124;2022-09-29T02:31:08;6.20;;;3.88;;
55913;SDS011;58179;48.776;9.124;2022-09-29T02:33:34;6.97;;;3.83;;
55913;SDS011;58179;48.776;9.124;2022-09-29T02:36:05;7.53;;;3.70;;
55913;SDS011;58179;48.776;9.124;2022-09-29T02:38:42;6.75;;;3.70;;
55913;SDS011;58179;48.776;9.124;2022-09-29T02:41:15;7.25;;;3.75;;
55913;SDS011;58179;48.776;9.124;2022-09-29T02:44:00;6.18;;;3.95;;
55913;SDS011;58179;48.776;9.124;2022-09-29T02:46:54;6.30;;;3.50;;
55913;SDS011;58179;48.776;9.124;2022-09-29T02:49:48;11.70;;;4.00;;
55913;SDS011;58179;48.776;9.124;2022-09-29T02:52:41;5.55;;;3.47;;
55913;SDS011;58179;48.776;9.124;2022-09-29T02:55:16;10.38;;;3.50;;
55913;SDS011;58179;48.776;9.124;2022-09-29T02:57:49;7.25;;;3.67;;
55913;SDS011;58179;48.776;9.124;2022-09-29T03:00:23;6.47;;;3.40;;
55913;SDS011;58179;48.776;9.124;2022-09-29T03:02:50;10.48;;;3.53;;
55913;SDS011;58179;48.776;9.124;2022-09-29T03:05:17;4.60;;;3.13;;
55913;SDS011;58179;48.776;9.124;2022-09-29T03:07:47;7.57;;;3.50;;
55913;SDS011;58179;48.776;9.124;2022-09-29T03:10:15;4.70;;;3.22;;
55913;SDS011;58179;48.776;9.124;2022-09-29T03:12:41;5.03;;;2.90;;
55913;SDS011;58179;48.776;9.124;2022-09-29T03:15:09;5.35;;;3.10;;
55913;SDS011;58179;48.776;9.124;2022-09-29T03:17:37;5.13;;;3.58;;
55913;SDS011;58179;48.776;9.124;2022-09-29T03:20:04;9.70;;;3.55;;
55913;SDS011;58179;48.776;9.124;2022-09-29T03:22:31;6.88;;;3.40;;
55913;SDS011;58179;48.776;9.124;2022-09-29T03:24:59;5.07;;;3.15;;
55913;SDS011;58179;48.776;9.124;2022-09-29T03:27:24;6.15;;;3.38;;
55913;SDS011;58179;48.776;9.124;2022-09-29T03:29:50;7.70;;;4.00;;
55913;SDS011;58179;48.776;9.124;2022-09-29T03:32:16;5.57;;;3.42;;
55913;SDS011;58179;48.776;9.124;2022-09-29T03:34:42;7.45;;;3.33;;
55913;SDS011;58179;48.776;9.124;2022-09-29T03:37:08;4.83;;;3.20;;
55913;SDS011;58179;48.776;9.124;2022-09-29T03:39:34;5.22;;;3.25;;
55913;SDS011;58179;48.776;9.124;2022-09-29T03:42:02;7.22;;;3.63;;
55913;SDS011;58179;48.776;9.124;2022-09-29T03:44:28;9.18;;;3.60;;
55913;SDS011;58179;48.776;9.124;2022-09-29T03:46:54;7.30;;;3.80;;
55913;SDS011;58179;48.776;9.124;2022-09-29T03:49:22;5.78;;;3.67;;
55913;SDS011;58179;48.776;9.124;2022-09-29T03:51:51;5.65;;;3.83;;
55913;SDS011;58179;48.776;9.124;2022-09-29T03:54:17;7.28;;;4.13;;
55913;SDS011;58179;48.776;9.124;2022-09-29T03:56:43;6.93;;;3.80;;
55913;SDS011;58179;48.776;9.124;2022-09-29T03:59:10;5.45;;;3.90;;
55913;SDS011;58179;48.776;9.124;2022-09-29T04:01:38;6.47;;;3.90;;
55913;SDS011;58179;48.776;9.124;2022-09-29T04:04:05;6.43;;;4.03;;
55913;SDS011;58179;48.776;9.124;2022-09-29T04:06:31;6.22;;;4.13;;
55913;SDS011;58179;48.776;9.124;2022-09-29T04:08:56;8.20;;;3.90;;
55913;SDS011;58179;48.776;9.124;2022-09-29T04:11:22;8.77;;;4.30;;
55913;SDS011;58179;48.776;9.124;2022-09-29T04:13:48;10.02;;;4.28;;
55913;SDS011;58179;48.776;9.124;2022-09-29T04:16:16;6.32;;;3.63;;
55913;SDS011;58179;48.776;9.124;2022-09-29T04:18:41;7.47;;;3.88;;
55913;SDS011;58179;48.776;9.124;2022-09-29T04:21:08;5.38;;;3.90;;
55913;SDS011;58179;48.776;9.124;2022-09-29T04:23:34;7.82;;;4.00;;
55913;SDS011;58179;48.776;9.124;2022-09-29T04:26:00;7.30;;;3.90;;
55913;SDS011;58179;48.776;9.124;2022-09-29T04:28:27;7.28;;;4.07;;
55913;SDS011;58179;48.776;9.124;2022-09-29T04:30:56;6.20;;;4.20;;
55913;SDS011;58179;48.776;9.124;2022-09-29T04:33:23;7.63;;;3.88;;
55913;SDS011;58179;48.776;9.124;2022-09-29T04:35:49;8.30;;;4.03;;
55913;SDS011;58179;48.776;9.124;2022-09-29T04:38:15;7.78;;;4.20;;
55913;SDS011;58179;48.776;9.124;2022-09-29T04:40:41;6.68;;;4.22;;
55913;SDS011;58179;48.776;9.124;2022-09-29T04:43:07;7.55;;;4.22;;
55913;SDS011;58179;48.776;9.124;2022-09-29T04:45:33;5.75;;;4.22;;
55913;SDS011;58179;48.776;9.124;2022-09-29T04:47:59;9.38;;;4.40;;
55913;SDS011;58179;48.776;9.124;2022-09-29T04:50:27;6.65;;;4.20;;
55913;SDS011;58179;48.776;9.124;2022-09-29T04:52:53;5.75;;;4.10;;
55913;SDS011;58179;48.776;9.124;2022-09-29T04:55:19;7.25;;;4.45;;
55913;SDS011;58179;48.776;9.124;2022-09-29T04:57:45;9.73;;;4.47;;
55913;SDS011;58179;48.776;9.124;2022-09-29T05:00:12;7.28;;;4.25;;
55913;SDS011;58179;48.776;9.124;2022-09-29T05:02:39;10.95;;;4.90;;
55913;SDS011;58179;48.776;9.124;2022-09-29T05:05:05;6.50;;;4.50;;
55913;SDS011;58179;48.776;9.124;2022-09-29T05:07:35;6.53;;;4.33;;
55913;SDS011;58179;48.776;9.124;2022-09-29T05:10:04;9.63;;;5.28;;
55913;SDS011;58179;48.776;9.124;2022-09-29T05:12:31;8.73;;;5.00;;
55913;SDS011;58179;48.776;9.124;2022-09-29T05:14:57;10.10;;;5.07;;
55913;SDS011;58179;48.776;9.124;2022-09-29T05:17:23;8.77;;;4.65;;
55913;SDS011;58179;48.776;9.124;2022-09-29T05:19:49;9.07;;;5.35;;
55913;SDS011;58179;48.776;9.124;2022-09-29T05:22:15;13.07;;;5.55;;
55913;SDS011;58179;48.776;9.124;2022-09-29T05:24:45;8.00;;;5.28;;
55913;SDS011;58179;48.776;9.124;2022-09-29T05:27:11;10.55;;;5.70;;
55913;SDS011;58179;48.776;9.124;2022-09-29T05:29:37;10.53;;;6.17;;
55913;SDS011;58179;48.776;9.124;2022-09-29T05:32:03;10.95;;;5.85;;
55913;SDS011;58179;48.776;9.124;2022-09-29T05:34:29;10.85;;;6.18;;
55913;SDS011;58179;48.776;9.124;2022-09-29T05:36:55;10.65;;;6.45;;
55913;SDS011;58179;48.776;9.124;2022-09-29T05:39:21;8.63;;;6.22;;
55913;SDS011;58179;48.776;9.124;2022-09-29T05:41:48;10.82;;;6.22;;
55913;SDS011;58179;48.776;9.124;2022-09-29T05:44:14;14.38;;;6.00;;
55913;SDS011;58179;48.776;9.124;2022-09-29T05:46:40;9.25;;;5.85;;
55913;SDS011;58179;48.776;9.124;2022-09-29T05:49:06;9.27;;;5.55;;
55913;SDS011;58179;48.776;9.124;2022-09-29T05:51:32;11.20;;;6.10;;
55913;SDS011;58179;48.776;9.124;2022-09-29T05:53:58;10.65;;;5.93;;
55913;SDS011;58179;48.776;9.124;2022-09-29T05:56:25;9.90;;;5.72;;
55913;SDS011;58179;48.776;9.124;2022-09-29T05:58:53;11.57;;;5.80;;
55913;SDS011;58179;48.776;9.124;2022-09-29T06:01:19;10.70;;;5.47;;
55913;SDS011;58179;48.776;9.124;2022-09-29T06:03:47;7.47;;;5.35;;
55913;SDS011;58179;48.776;9.124;2022-09-29T06:06:15;9.57;;;5.28;;
55913;SDS011;58179;48.776;9.124;2022-09-29T06:08:44;8.15;;;5.25;;
55913;SDS011;58179;48.776;9.124;2022-09-29T06:11:11;9.98;;;5.72;;
55913;SDS011;58179;48.776;9.124;2022-09-29T06:13:40;6.88;;;5.00;;
55913;SDS011;58179;48.776;9.124;2022-09-29T06:16:09;8.73;;;5.35;;
55913;SDS011;58179;48.776;9.124;2022-09-29T06:18:36;9.73;;;5.60;;
55913;SDS011;58179;48.776;9.124;2022-09-29T06:21:02;7.83;;;6.07;;
55913;SDS011;58179;48.776;9.124;2022-09-29T06:23:30;10.30;;;5.40;;
55913;SDS011;58179;48.776;9.124;2022-09-29T06:25:57;7.25;;;5.47;;
55913;SDS011;58179;48.776;9.124;2022-09-29T06:28:26;8.82;;;5.60;;
55913;SDS011;58179;48.776;9.124;2022-09-29T06:30:57;7.53;;;5.47;;
55913;SDS011;58179;48.776;9.124;2022-09-29T06:33:25;11.85;;;5.55;;
55913;SDS011;58179;48.776;9.124;2022-09-29T06:35:52;8.90;;;5.93;;
55913;SDS011;58179;48.776;9.124;2022-09-29T06:38:36;9.13;;;5.43;;
55913;SDS011;58179;48.776;9.124;2022-09-29T06:41:02;10.23;;;5.43;;
55913;SDS011;58179;48.776;9.124;2022-09-29T06:43:29;8.95;;;5.35;;
55913;SDS011;58179;48.776;9.124;2022-09-29T06:45:55;11.45;;;5.50;;
55913;SDS011;58179;48.776;9.124;2022-09-29T06:48:21;7.17;;;5.10;;
55913;SDS011;58179;48.776;9.124;2022-09-29T06:50:48;10.15;;;5.53;;
55913;SDS011;58179;48.776;9.124;2022-09-29T06:53:14;10.13;;;6.45;;
55913;SDS011;58179;48.776;9.124;2022-09-29T06:55:40;15.30;;;6.75;;
55913;SDS011;58179;48.776;9.124;2022-09-29T06:58:06;13.13;;;7.35;;
55913;SDS011;58179;48.776;9.124;2022-09-29T07:00:32;14.52;;;6.75;;
55913;SDS011;58179;48.776;9.124;2022-09-29T07:02:59;11.63;;;6.72;;
55913;SDS011;58179;48.776;9.124;2022-09-29T07:05:25;12.40;;;7.47;;
55913;SDS011;58179;48.776;9.124;2022-09-29T07:07:53;11.07;;;6.53;;
55913;SDS011;58179;48.776;9.124;2022-09-29T07:10:19;11.80;;;7.07;;
55913;SDS011;58179;48.776;9.124;2022-09-29T07:12:45;12.20;;;6.90;;
55913;SDS011;58179;48.776;9.124;2022-09-29T07:15:11;12.20;;;7.03;;
55913;SDS011;58179;48.776;9.124;2022-09-29T07:17:37;8.07;;;6.15;;
55913;SDS011;58179;48.776;9.124;2022-09-29T07:20:03;10.90;;;6.88;;
55913;SDS011;58179;48.776;9.124;2022-09-29T07:22:31;8.90;;;6.47;;
55913;SDS011;58179;48.776;9.124;2022-09-29T07:24:58;12.52;;;7.18;;
55913;SDS011;58179;48.776;9.124;2022-09-29T07:27:24;10.77;;;7.30;;
55913;SDS011;58179;48.776;9.124;2022-09-29T07:29:50;15.07;;;7.78;;
55913;SDS011;58179;48.776;9.124;2022-09-29T07:32:16;12.02;;;6.72;;
55913;SDS011;58179;48.776;9.124;2022-09-29T07:34:42;10.95;;;7.18;;
55913;SDS011;58179;48.776;9.124;2022-09-29T07:37:08;11.50;;;7.55;;
55913;SDS011;58179;48.776;9.124;2022-09-29T07:39:34;11.60;;;7.03;;
55913;SDS011;58179;48.776;9.124;2022-09-29T07:42:02;10.60;;;7.00;;
55913;SDS011;58179;48.776;9.124;2022-09-29T07:44:28;15.20;;;7.47;;
55913;SDS011;58179;48.776;9.124;2022-09-29T07:46:56;9.05;;;6.07;;
55913;SDS011;58179;48.776;9.124;2022-09-29T07:49:22;10.63;;;6.72;;
55913;SDS011;58179;48.776;9.124;2022-09-29T07:51:48;11.15;;;6.65;;
55913;SDS011;58179;48.776;9.124;2022-09-29T07:54:14;9.15;;;5.75;;
55913;SDS011;58179;48.776;9.124;2022-09-29T07:56:40;11.15;;;6.95;;
55913;SDS011;58179;48.776;9.124;2022-09-29T07:59:10;10.88;;;6.43;;
55913;SDS011;58179;48.776;9.124;2022-09-29T08:01:36;12.57;;;6.90;;
55913;SDS011;58179;48.776;9.124;2022-09-29T08:04:02;10.95;;;6.63;;
55913;SDS011;58179;48.776;9.124;2022-09-29T08:06:28;9.70;;;6.63;;
55913;SDS011;58179;48.776;9.124;2022-09-29T08:08:54;13.38;;;7.60;;
55913;SDS011;58179;48.776;9.124;2022-09-29T08:11:21;11.63;;;7.63;;
55913;SDS011;58179;48.776;9.124;2022-09-29T08:13:47;12.15;;;6.90;;
55913;SDS011;58179;48.776;9.124;2022-09-29T08:16:18;12.55;;;7.22;;
55913;SDS011;58179;48.776;9.124;2022-09-29T08:18:45;10.75;;;6.70;;
55913;SDS011;58179;48.776;9.124;2022-09-29T08:21:11;10.25;;;6.45;;
55913;SDS011;58179;48.776;9.124;2022-09-29T08:23:39;9.50;;;5.80;;
55913;SDS011;58179;48.776;9.124;2022-09-29T08:26:08;8.38;;;5.80;;
55913;SDS011;58179;48.776;9.124;2022-09-29T08:28:36;8.63;;;5.93;;
55913;SDS011;58179;48.776;9.124;2022-09-29T08:31:04;9.55;;;5.78;;
55913;SDS011;58179;48.776;9.124;2022-09-29T08:33:33;11.10;;;6.10;;
55913;SDS011;58179;48.776;9.124;2022-09-29T08:36:00;10.57;;;5.80;;
55913;SDS011;58179;48.776;9.124;2022-09-29T08:38:29;8.80;;;5.90;;
55913;SDS011;58179;48.776;9.124;2022-09-29T08:40:56;8.68;;;5.72;;
55913;SDS011;58179;48.776;9.124;2022-09-29T08:43:29;12.70;;;6.05;;
55913;SDS011;58179;48.776;9.124;2022-09-29T08:46:04;6.97;;;5.28;;
55913;SDS011;58179;48.776;9.124;2022-09-29T08:48:37;9.35;;;5.47;;
55913;SDS011;58179;48.776;9.124;2022-09-29T08:51:10;7.70;;;4.97;;
55913;SDS011;58179;48.776;9.124;2022-09-29T08:53:47;7.75;;;5.10;;
55913;SDS011;58179;48.776;9.124;2022-09-29T08:56:17;10.20;;;5.60;;
55913;SDS011;58179;48.776;9.124;2022-09-29T08:58:43;7.60;;;5.32;;
55913;SDS011;58179;48.776;9.124;2022-09-29T09:01:13;6.80;;;4.73;;
55913;SDS011;58179;48.776;9.124;2022-09-29T09:03:55;11.38;;;5.35;;
55913;SDS011;58179;48.776;9.124;2022-09-29T09:06:53;6.50;;;4.20;;
55913;SDS011;58179;48.776;9.124;2022-09-29T09:09:33;6.95;;;4.30;;
55913;SDS011;58179;48.776;9.124;2022-09-29T09:12:17;9.15;;;4.95;;
55913;SDS011;58179;48.776;9.124;2022-09-29T09:15:13;9.77;;;4.68;;
55913;SDS011;58179;48.776;9.124;2022-09-29T09:17:58;8.63;;;4.47;;
55913;SDS011;58179;48.776;9.124;2022-09-29T09:20:54;11.13;;;4.45;;
55913;SDS011;58179;48.776;9.124;2022-09-29T09:23:29;6.10;;;4.00;;
55913;SDS011;58179;48.776;9.124;2022-09-29T09:26:06;8.07;;;4.50;;
55913;SDS011;58179;48.776;9.124;2022-09-29T09:28:35;7.82;;;4.55;;
55913;SDS011;58179;48.776;9.124;2022-09-29T09:31:08;7.68;;;4.13;;
55913;SDS011;58179;48.776;9.124;2022-09-29T09:33:41;5.20;;;3.95;;
55913;SDS011;58179;48.776;9.124;2022-09-29T09:36:13;5.80;;;3.60;;
55913;SDS011;58179;48.776;9.124;2022-09-29T09:38:44;8.27;;;3.80;;
55913;SDS011;58179;48.776;9.124;2022-09-29T09:41:17;9.10;;;4.80;;
55913;SDS011;58179;48.776;9.124;2022-09-29T09:43:47;10.60;;;5.30;;
55913;SDS011;58179;48.776;9.124;2022-09-29T09:46:19;11.35;;;4.65;;
55913;SDS011;58179;48.776;9.124;2022-09-29T09:48:53;6.60;;;4.00;;
55913;SDS011;58179;48.776;9.124;2022-09-29T09:51:31;6.20;;;4.20;;
55913;SDS011;58179;48.776;9.124;2022-09-29T09:54:12;6.88;;;3.90;;
55913;SDS011;58179;48.776;9.124;2022-09-29T09:56:49;6.22;;;3.88;;
55913;SDS011;58179;48.776;9.124;2022-09-29T10:00:05;6.73;;;4.33;;
55913;SDS011;58179;48.776;9.124;2022-09-29T10:02:37;14.95;;;4.32;;
55913;SDS011;58179;48.776;9.124;2022-09-29T10:05:09;6.80;;;3.80;;
55913;SDS011;58179;48.776;9.124;2022-09-29T10:07:39;7.30;;;3.67;;
55913;SDS011;58179;48.776;9.124;2022-09-29T10:10:11;4.65;;;3.25;;
55913;SDS011;58179;48.776;9.124;2022-09-29T10:12:41;5.97;;;3.53;;
55913;SDS011;58179;48.776;9.124;2022-09-29T10:15:13;5.95;;;3.30;;
55913;SDS011;58179;48.776;9.124;2022-09-29T10:17:46;4.75;;;2.90;;
55913;SDS011;58179;48.776;9.124;2022-09-29T10:20:31;6.20;;;2.88;;
55913;SDS011;58179;48.776;9.124;2022-09-29T10:25:54;5.03;;;2.70;;
55913;SDS011;58179;48.776;9.124;2022-09-29T10:28:25;6.03;;;2.80;;
55913;SDS011;58179;48.776;9.124;2022-09-29T10:31:01;4.53;;;2.50;;
55913;SDS011;58179;48.776;9.124;2022-09-29T10:33:38;3.53;;;2.50;;
55913;SDS011;58179;48.776;9.124;2022-09-29T10:36:13;8.55;;;2.97;;
55913;SDS011;58179;48.776;9.124;2022-09-29T10:38:41;5.07;;;2.40;;
55913;SDS011;58179;48.776;9.124;2022-09-29T10:41:11;5.53;;;2.38;;
55913;SDS011;58179;48.776;9.124;2022-09-29T10:43:38;3.55;;;2.05;;
55913;SDS011;58179;48.776;9.124;2022-09-29T10:46:29;4.22;;;2.00;;
55913;SDS011;58179;48.776;9.124;2022-09-29T10:49:13;3.85;;;2.20;;
55913;SDS011;58179;48.776;9.124;2022-09-29T10:51:41;3.40;;;1.98;;
55913;SDS011;58179;48.776;9.124;2022-09-29T10:54:19;3.22;;;2.00;;
55913;SDS011;58179;48.776;9.124;2022-09-29T10:56:49;4.68;;;2.30;;
55913;SDS011;58179;48.776;9.124;2022-09-29T10:59:16;4.07;;;2.13;;
55913;SDS011;58179;48.776;9.124;2022-09-29T11:01:45;3.88;;;2.25;;
55913;SDS011;58179;48.776;9.124;2022-09-29T11:04:15;2.83;;;2.13;;
55913;SDS011;58179;48.776;9.124;2022-09-29T11:06:46;3.28;;;1.95;;
55913;SDS011;58179;48.776;9.124;2022-09-29T11:09:26;4.85;;;1.95;;
55913;SDS011;58179;48.776;9.124;2022-09-29T11:11:55;4.63;;;2.00;;
55913;SDS011;58179;48.776;9.124;2022-09-29T11:14:23;2.00;;;1.70;;
55913;SDS011;58179;48.776;9.124;2022-09-29T11:16:53;3.65;;;1.92;;
55913;SDS011;58179;48.776;9.124;2022-09-29T11:19:22;3.97;;;1.77;;
55913;SDS011;58179;48.776;9.124;2022-09-29T11:22:04;4.90;;;1.70;;
55913;SDS011;58179;48.776;9.124;2022-09-29T11:31:22;5.50;;;1.80;;
55913;SDS011;58179;48.776;9.124;2022-09-29T11:34:10;3.40;;;1.77;;
55913;SDS011;58179;48.776;9.124;2022-09-29T11:36:59;5.32;;;1.85;;
55913;SDS011;58179;48.776;9.124;2022-09-29T11:39:43;5.47;;;1.75;;
55913;SDS011;58179;48.776;9.124;2022-09-29T11:42:20;3.15;;;1.80;;
55913;SDS011;58179;48.776;9.124;2022-09-29T11:45:15;4.57;;;2.10;;
55913;SDS011;58179;48.776;9.124;2022-09-29T11:47:56;4.68;;;1.83;;
55913;SDS011;58179;48.776;9.124;2022-09-29T11:50:56;3.78;;;1.60;;
55913;SDS011;58179;48.776;9.124;2022-09-29T11:53:43;4.30;;;2.00;;
55913;SDS011;58179;48.776;9.124;2022-09-29T11:56:28;3.17;;;1.60;;
55913;SDS011;58179;48.776;9.124;2022-09-29T11:59:07;6.15;;;1.90;;
55913;SDS011;58179;48.776;9.124;2022-09-29T12:05:18;4.22;;;1.80;;
55913;SDS011;58179;48.776;9.124;2022-09-29T12:07:53;2.97;;;1.70;;
55913;SDS011;58179;48.776;9.124;2022-09-29T12:10:40;5.47;;;2.00;;
55913;SDS011;58179;48.776;9.124;2022-09-29T12:13:20;4.03;;;2.33;;
55913;SDS011;58179;48.776;9.124;2022-09-29T12:15:57;4.75;;;1.98;;
55913;SDS011;58179;48.776;9.124;2022-09-29T12:18:29;3.58;;;1.70;;
55913;SDS011;58179;48.776;9.124;2022-09-29T12:21:03;3.63;;;1.80;;
55913;SDS011;58179;48.776;9.124;2022-09-29T12:23:33;3.00;;;1.80;;
55913;SDS011;58179;48.776;9.124;2022-09-29T12:26:03;3.42;;;1.75;;
55913;SDS011;58179;48.776;9.124;2022-09-29T12:28:34;4.47;;;1.88;;
55913;SDS011;58179;48.776;9.124;2022-09-29T12:31:09;4.43;;;1.80;;
55913;SDS011;58179;48.776;9.124;2022-09-29T12:33:39;3.20;;;1.80;;
55913;SDS011;58179;48.776;9.124;2022-09-29T12:36:13;4.18;;;1.88;;
55913;SDS011;58179;48.776;9.124;2022-09-29T12:39:12;4.85;;;1.80;;
55913;SDS011;58179;48.776;9.124;2022-09-29T12:41:51;5.03;;;2.07;;
55913;SDS011;58179;48.776;9.124;2022-09-29T12:44:28;4.03;;;2.00;;
55913;SDS011;58179;48.776;9.124;2022-09-29T12:46:58;4.03;;;2.22;;
55913;SDS011;58179;48.776;9.124;2022-09-29T12:49:33;4.93;;;2.23;;
55913;SDS011;58179;48.776;9.124;2022-09-29T12:52:07;4.95;;;2.22;;
55913;SDS011;58179;48.776;9.124;2022-09-29T12:54:46;6.00;;;2.25;;
55913;SDS011;58179;48.776;9.124;2022-09-29T12:57:19;3.70;;;2.10;;
55913;SDS011;58179;48.776;9.124;2022-09-29T12:59:51;4.50;;;2.20;;
55913;SDS011;58179;48.776;9.124;2022-09-29T13:02:30;7.03;;;3.90;;
55913;SDS011;58179;48.776;9.124;2022-09-29T13:05:20;7.03;;;3.53;;
55913;SDS011;58179;48.776;9.124;2022-09-29T13:14:16;4.00;;;2.10;;
55913;SDS011;58179;48.776;9.124;2022-09-29T13:17:22;3.08;;;1.88;;
55913;SDS011;58179;48.776;9.124;2022-09-29T13:23:25;5.22;;;2.25;;
55913;SDS011;58179;48.776;9.124;2022-09-29T13:26:08;5.72;;;2.20;;
55913;SDS011;58179;48.776;9.124;2022-09-29T13:29:04;4.50;;;2.15;;
55913;SDS011;58179;48.776;9.124;2022-09-29T13:31:38;7.27;;;2.70;;
55913;SDS011;58179;48.776;9.124;2022-09-29T13:34:04;7.18;;;2.70;;
55913;SDS011;58179;48.776;9.124;2022-09-29T13:36:31;4.38;;;2.40;;
55913;SDS011;58179;48.776;9.124;2022-09-29T13:39:02;8.93;;;2.83;;
55913;SDS011;58179;48.776;9.124;2022-09-29T13:41:35;3.22;;;2.17;;
55913;SDS011;58179;48.776;9.124;2022-09-29T13:46:49;3.95;;;2.33;;
55913;SDS011;58179;48.776;9.124;2022-09-29T13:49:23;5.95;;;2.58;;
55913;SDS011;58179;48.776;9.124;2022-09-29T13:51:53;4.80;;;2.40;;
55913;SDS011;58179;48.776;9.124;2022-09-29T14:00:15;6.15;;;2.25;;
55913;SDS011;58179;48.776;9.124;2022-09-29T14:02:45;3.13;;;2.13;;
55913;SDS011;58179;48.776;9.124;2022-09-29T14:05:35;5.10;;;2.10;;
55913;SDS011;58179;48.776;9.124;2022-09-29T14:08:34;4.00;;;2.08;;
55913;SDS011;58179;48.776;9.124;2022-09-29T14:11:06;5.00;;;2.13;;
55913;SDS011;58179;48.776;9.124;2022-09-29T14:13:47;5.60;;;1.90;;
55913;SDS011;58179;48.776;9.124;2022-09-29T14:16:29;7.07;;;2.30;;
55913;SDS011;58179;48.776;9.124;2022-09-29T14:19:04;4.73;;;2.07;;
55913;SDS011;58179;48.776;9.124;2022-09-29T14:21:45;5.70;;;2.70;;
55913;SDS011;58179;48.776;9.124;2022-09-29T14:30:10;7.85;;;2.70;;
55913;SDS011;58179;48.776;9.124;2022-09-29T14:32:43;3.50;;;2.20;;
55913;SDS011;58179;48.776;9.124;2022-09-29T14:35:17;4.73;;;2.40;;
55913;SDS011;58179;48.776;9.124;2022-09-29T14:37:56;4.00;;;2.53;;
55913;SDS011;58179;48.776;9.124;2022-09-29T14:40:29;7.38;;;2.72;;
55913;SDS011;58179;48.776;9.124;2022-09-29T14:43:07;4.53;;;2.40;;
55913;SDS011;58179;48.776;9.124;2022-09-29T14:45:41;7.15;;;2.75;;
55913;SDS011;58179;48.776;9.124;2022-09-29T14:48:45;6.20;;;2.83;;
55913;SDS011;58179;48.776;9.124;2022-09-29T14:51:48;6.55;;;2.65;;
55913;SDS011;58179;48.776;9.124;2022-09-29T14:54:25;4.93;;;2.60;;
55913;SDS011;58179;48.776;9.124;2022-09-29T14:57:07;7.10;;;2.53;;
55913;SDS011;58179;48.776;9.124;2022-09-29T15:00:04;6.32;;;2.67;;
55913;SDS011;58179;48.776;9.124;2022-09-29T15:02:39;5.67;;;2.90;;
55913;SDS011;58179;48.776;9.124;2022-09-29T15:05:20;6.68;;;2.78;;
55913;SDS011;58179;48.776;9.124;2022-09-29T15:07:50;7.80;;;2.67;;
55913;SDS011;58179;48.776;9.124;2022-09-29T15:10:21;3.85;;;2.50;;
55913;SDS011;58179;48.776;9.124;2022-09-29T15:12:50;10.88;;;2.58;;
55913;SDS011;58179;48.776;9.124;2022-09-29T15:15:30;6.28;;;2.78;;
55913;SDS011;58179;48.776;9.124;2022-09-29T15:18:02;6.70;;;2.80;;
55913;SDS011;58179;48.776;9.124;2022-09-29T15:20:46;5.57;;;2.58;;
55913;SDS011;58179;48.776;9.124;2022-09-29T15:26:28;6.32;;;2.80;;
55913;SDS011;58179;48.776;9.124;2022-09-29T15:28:57;8.07;;;2.80;;
55913;SDS011;58179;48.776;9.124;2022-09-29T15:31:25;7.95;;;2.50;;
55913;SDS011;58179;48.776;9.124;2022-09-29T15:33:54;8.05;;;2.83;;
55913;SDS011;58179;48.776;9.124;2022-09-29T15:36:23;7.03;;;2.78;;
55913;SDS011;58179;48.776;9.124;2022-09-29T15:38:51;6.97;;;3.00;;
55913;SDS011;58179;48.776;9.124;2022-09-29T15:41:21;6.35;;;2.42;;
55913;SDS011;58179;48.776;9.124;2022-09-29T15:43:52;6.13;;;2.85;;
55913;SDS011;58179;48.776;9.124;2022-09-29T15:46:22;5.63;;;2.63;;
55913;SDS011;58179;48.776;9.124;2022-09-29T15:49:10;7.97;;;2.70;;
55913;SDS011;58179;48.776;9.124;2022-09-29T15:51:44;5.25;;;2.70;;
55913;SDS011;58179;48.776;9.124;2022-09-29T15:54:22;4.38;;;2.40;;
55913;SDS011;58179;48.776;9.124;2022-09-29T15:56:49;5.90;;;2.90;;
55913;SDS011;58179;48.776;9.124;2022-09-29T15:59:38;4.93;;;2.60;;
55913;SDS011;58179;48.776;9.124;2022-09-29T16:02:10;8.13;;;3.03;;